Time;durP1;ratioP1;P1;durP2;ratioP2;P2;SDS_P1;SDS_P2;PMS_P1;PMS_P2;Temp;Humidity;BMP_temperature;BMP_pressure;BME280_temperature;BME280_humidity;BME280_pressure;Samples;Min_cycle;Max_cycle;Signal;HPM_P1;HPM_P2
2021/07/04 00:01:02;;;;;;;10.57;7.20;;;;;;;14.93;100.00;100370.56;5197597;28;20037;-77
2021/07/04 00:03:32;;;;;;;10.85;6.95;;;;;;;14.98;100.00;100366.75;5196207;28;20538;-77
2021/07/04 00:06:03;;;;;;;12.30;7.25;;;;;;;15.38;100.00;100366.16;5196318;28;20026;-77
2021/07/04 00:08:33;;;;;;;8.48;6.45;;;;;;;15.35;100.00;100368.97;5198694;28;20384;-77
2021/07/04 00:11:07;;;;;;;9.27;6.43;;;;;;;15.33;100.00;100372.66;5197330;28;20112;-77
2021/07/04 00:13:37;;;;;;;12.85;6.28;;;;;;;15.42;100.00;100367.69;5198161;28;20104;-78
2021/07/04 00:16:08;;;;;;;10.05;6.95;;;;;;;15.54;100.00;100369.59;5197363;28;20105;-77
2021/07/04 00:18:38;;;;;;;8.02;5.68;;;;;;;15.35;100.00;100363.72;5196079;28;20017;-77
2021/07/04 00:21:09;;;;;;;9.90;6.63;;;;;;;15.14;100.00;100366.69;5193175;28;20036;-77
2021/07/04 00:23:39;;;;;;;7.93;6.30;;;;;;;15.03;100.00;100367.31;5194883;28;20129;-76
2021/07/04 00:26:11;;;;;;;11.02;6.25;;;;;;;15.02;100.00;100370.88;5196678;28;20023;-76
2021/07/04 00:28:41;;;;;;;10.07;6.25;;;;;;;15.03;100.00;100367.31;5198883;28;20041;-78
2021/07/04 00:31:11;;;;;;;12.70;6.43;;;;;;;14.86;100.00;100369.22;5192043;28;20029;-76
2021/07/04 00:33:42;;;;;;;10.95;6.10;;;;;;;14.98;100.00;100369.38;5199636;28;20503;-76
2021/07/04 00:36:12;;;;;;;9.35;5.85;;;;;;;15.14;100.00;100364.06;5194801;28;20037;-78
2021/07/04 00:38:42;;;;;;;6.85;5.03;;;;;;;15.16;100.00;100362.22;5195457;28;20053;-77
2021/07/04 00:41:12;;;;;;;10.32;5.50;;;;;;;15.05;100.00;100365.44;5195757;28;20040;-76
2021/07/04 00:43:43;;;;;;;7.05;5.30;;;;;;;15.09;100.00;100361.72;5196754;28;20029;-77
2021/07/04 00:46:15;;;;;;;8.15;6.18;;;;;;;15.24;100.00;100349.44;5197088;28;20321;-78
2021/07/04 00:48:45;;;;;;;7.18;5.40;;;;;;;15.35;100.00;100352.34;5194934;28;20034;-77
2021/07/04 00:51:15;;;;;;;7.57;5.18;;;;;;;15.39;100.00;100343.31;5198349;28;20049;-78
2021/07/04 00:53:46;;;;;;;5.93;5.18;;;;;;;15.32;100.00;100345.47;5197318;28;20048;-79
2021/07/04 00:56:16;;;;;;;6.15;5.05;;;;;;;15.31;100.00;100348.16;5198100;28;20196;-79
2021/07/04 00:58:47;;;;;;;7.10;4.75;;;;;;;15.24;100.00;100347.69;5199722;28;20030;-78
2021/07/04 01:01:17;;;;;;;5.68;4.28;;;;;;;15.11;100.00;100354.56;5201164;28;20111;-77
2021/07/04 01:03:47;;;;;;;5.25;3.83;;;;;;;15.06;100.00;100348.75;5199309;28;20033;-79
2021/07/04 01:06:18;;;;;;;5.60;4.05;;;;;;;14.72;100.00;100348.09;5195437;28;20373;-78
2021/07/04 01:08:48;;;;;;;3.70;3.30;;;;;;;14.49;100.00;100348.53;5199811;28;20026;-79
2021/07/04 01:11:18;;;;;;;3.35;2.97;;;;;;;14.34;100.00;100351.13;5199688;28;20030;-79
2021/07/04 01:13:49;;;;;;;4.93;3.30;;;;;;;14.43;100.00;100348.00;5200295;28;20022;-77
2021/07/04 01:16:19;;;;;;;4.28;3.63;;;;;;;14.35;100.00;100352.81;5195532;28;20033;-77
2021/07/04 01:18:52;;;;;;;5.65;3.50;;;;;;;14.48;100.00;100345.97;5196288;28;20018;-78
2021/07/04 01:21:24;;;;;;;9.20;3.80;;;;;;;14.35;100.00;100335.28;5194615;28;20041;-78
2021/07/04 01:23:54;;;;;;;3.67;3.08;;;;;;;14.33;100.00;100333.66;5192304;28;20022;-78
2021/07/04 01:26:24;;;;;;;3.90;3.10;;;;;;;14.20;100.00;100340.50;5200044;28;20033;-78
2021/07/04 01:28:54;;;;;;;5.40;3.22;;;;;;;14.10;100.00;100342.75;5194526;28;20053;-78
2021/07/04 01:31:25;;;;;;;5.97;3.67;;;;;;;14.03;100.00;100335.28;5199934;28;20043;-76
2021/07/04 01:33:55;;;;;;;5.78;4.47;;;;;;;14.03;100.00;100333.50;5192085;28;20025;-79
2021/07/04 01:36:25;;;;;;;5.82;4.20;;;;;;;14.16;100.00;100328.47;5199170;28;20041;-79
2021/07/04 01:38:56;;;;;;;5.47;4.20;;;;;;;14.18;100.00;100326.59;5193237;28;20021;-77
2021/07/04 01:41:26;;;;;;;6.45;4.57;;;;;;;14.11;100.00;100327.84;5195297;28;20395;-78
2021/07/04 01:43:56;;;;;;;5.63;4.72;;;;;;;14.24;100.00;100326.28;5200732;28;20109;-78
2021/07/04 01:46:27;;;;;;;7.97;4.78;;;;;;;14.15;100.00;100326.75;5196575;28;20053;-78
2021/07/04 01:48:57;;;;;;;7.10;5.30;;;;;;;14.26;100.00;100324.41;5199432;28;20029;-78
2021/07/04 01:51:27;;;;;;;7.85;5.55;;;;;;;14.40;100.00;100319.25;5191394;28;20109;-77
2021/07/04 01:53:58;;;;;;;8.85;6.15;;;;;;;14.20;100.00;100319.47;5192169;28;20033;-77
2021/07/04 01:56:28;;;;;;;8.85;5.47;;;;;;;14.04;100.00;100322.06;5191088;28;20530;-77
2021/07/04 01:58:58;;;;;;;7.43;5.50;;;;;;;13.94;100.00;100320.00;5195601;28;20024;-78
2021/07/04 02:01:29;;;;;;;7.82;5.50;;;;;;;14.24;100.00;100319.22;5193152;28;20059;-76
2021/07/04 02:03:59;;;;;;;10.82;6.53;;;;;;;14.01;100.00;100324.84;5194843;28;20041;-78
2021/07/04 02:06:32;;;;;;;9.68;6.40;;;;;;;14.06;100.00;100320.19;5191772;28;20055;-77
2021/07/04 02:09:03;;;;;;;8.82;6.40;;;;;;;13.92;100.00;100317.44;5190024;28;20050;-76
2021/07/04 02:11:33;;;;;;;9.98;7.28;;;;;;;13.83;100.00;100314.47;5186728;28;20064;-78
2021/07/04 02:14:03;;;;;;;14.23;7.30;;;;;;;13.86;100.00;100309.91;5193615;28;20117;-77
2021/07/04 02:16:34;;;;;;;10.95;6.78;;;;;;;13.95;100.00;100314.66;5190506;28;20541;-77
2021/07/04 02:19:04;;;;;;;10.23;6.68;;;;;;;13.84;100.00;100317.03;5191280;28;20030;-76
2021/07/04 02:21:34;;;;;;;12.23;6.82;;;;;;;13.71;100.00;100321.22;5191752;28;20041;-76
2021/07/04 02:24:05;;;;;;;13.40;8.10;;;;;;;13.62;100.00;100323.47;5190413;28;20032;-78
2021/07/04 02:26:35;;;;;;;15.00;7.20;;;;;;;13.70;100.00;100316.03;5193340;28;20048;-76
2021/07/04 02:29:05;;;;;;;12.18;7.63;;;;;;;13.75;100.00;100314.03;5192642;28;20026;-78
2021/07/04 02:31:35;;;;;;;11.23;7.22;;;;;;;13.81;100.00;100314.56;5194034;28;20108;-77
2021/07/04 02:34:06;;;;;;;13.45;7.60;;;;;;;13.83;100.00;100310.06;5191512;28;20399;-76
2021/07/04 02:36:36;;;;;;;15.35;7.85;;;;;;;13.88;100.00;100315.94;5193689;28;20173;-76
2021/07/04 02:39:07;;;;;;;10.82;7.72;;;;;;;13.85;100.00;100313.47;5193758;28;20108;-76
2021/07/04 02:41:37;;;;;;;8.93;6.97;;;;;;;14.16;100.00;100310.06;5247730;23;20073;-78
2021/07/04 02:44:09;;;;;;;8.82;6.65;;;;;;;14.19;100.00;100302.88;5213913;28;20057;-78
2021/07/04 02:46:39;;;;;;;11.10;6.68;;;;;;;14.12;100.00;100311.13;5214388;28;20037;-78
2021/07/04 02:49:09;;;;;;;10.70;7.53;;;;;;;13.93;100.00;100313.06;5212061;28;20048;-78
2021/07/04 02:51:40;;;;;;;11.75;7.45;;;;;;;13.97;100.00;100314.59;5199066;28;20180;-78
2021/07/04 02:54:10;;;;;;;15.82;7.45;;;;;;;13.79;100.00;100315.56;5188406;28;20040;-78
2021/07/04 02:56:41;;;;;;;9.73;7.45;;;;;;;13.94;100.00;100312.13;5193817;28;20508;-78
2021/07/04 02:59:11;;;;;;;12.75;6.88;;;;;;;14.16;100.00;100316.19;5190570;28;20053;-78
2021/07/04 03:01:41;;;;;;;9.82;6.65;;;;;;;14.27;100.00;100315.59;5188804;28;20021;-78
2021/07/04 03:04:11;;;;;;;7.50;5.93;;;;;;;14.35;100.00;100313.38;5188175;28;20030;-78
2021/07/04 03:06:42;;;;;;;11.88;6.32;;;;;;;14.28;100.00;100307.59;5192094;28;20025;-78
2021/07/04 03:09:12;;;;;;;11.38;6.72;;;;;;;14.24;100.00;100311.34;5191026;28;20471;-78
2021/07/04 03:11:42;;;;;;;12.35;7.72;;;;;;;14.13;100.00;100307.56;5192465;28;20108;-78
2021/07/04 03:14:13;;;;;;;12.40;8.05;;;;;;;13.99;100.00;100315.34;5190731;28;20038;-78
2021/07/04 03:16:43;;;;;;;13.50;7.80;;;;;;;14.05;100.00;100315.03;5186239;28;20025;-78
2021/07/04 03:19:14;;;;;;;14.38;7.97;;;;;;;14.12;100.00;100314.59;5183070;28;20034;-78
2021/07/04 03:21:45;;;;;;;17.70;8.18;;;;;;;14.01;100.00;100310.84;5187395;28;20119;-78
2021/07/04 03:24:18;;;;;;;13.23;8.52;;;;;;;13.86;100.00;100309.91;5186905;28;20499;-78
2021/07/04 03:26:49;;;;;;;18.50;8.27;;;;;;;13.95;100.00;100319.06;5192980;28;20025;-78
2021/07/04 03:29:20;;;;;;;14.98;8.45;;;;;;;13.75;100.00;100319.28;5188765;28;20022;-78
2021/07/04 03:31:50;;;;;;;13.98;8.07;;;;;;;13.81;100.00;100316.31;5188249;28;20048;-78
2021/07/04 03:34:21;;;;;;;13.13;7.40;;;;;;;13.93;100.00;100315.69;5194953;28;20029;-78
2021/07/04 03:36:51;;;;;;;14.95;8.63;;;;;;;13.89;100.00;100314.16;5191026;28;20026;-78
2021/07/04 03:39:22;;;;;;;12.82;8.75;;;;;;;13.77;100.00;100320.06;5192994;28;20035;-78
2021/07/04 03:41:52;;;;;;;12.50;8.07;;;;;;;13.97;100.00;100314.59;5182990;28;20052;-78
2021/07/04 03:44:23;;;;;;;11.60;7.63;;;;;;;14.18;100.00;100314.31;5191233;28;20203;-78
2021/07/04 03:46:53;;;;;;;19.02;9.15;;;;;;;14.11;100.00;100314.69;5195541;28;20033;-78
2021/07/04 03:49:23;;;;;;;16.25;8.10;;;;;;;14.15;100.00;100313.59;5190373;28;20030;-78
2021/07/04 03:51:54;;;;;;;13.88;7.63;;;;;;;14.18;100.00;100302.94;5192272;28;20021;-78
2021/07/04 03:54:25;;;;;;;13.27;7.97;;;;;;;14.30;100.00;100304.91;5189199;28;20052;-78
2021/07/04 03:56:56;;;;;;;18.77;7.88;;;;;;;14.32;100.00;100309.16;5192373;28;20056;-78
2021/07/04 03:59:27;;;;;;;23.40;8.35;;;;;;;14.10;100.00;100307.75;5188785;28;20062;-77
2021/07/04 04:01:57;;;;;;;18.63;8.75;;;;;;;14.03;100.00;100311.63;5186904;28;20083;-77
2021/07/04 04:04:30;;;;;;;19.80;9.13;;;;;;;14.03;100.00;100309.00;5188835;28;20144;-78
2021/07/04 04:07:00;;;;;;;18.40;8.15;;;;;;;14.30;100.00;100304.91;5192825;28;20899;-78
2021/07/04 04:09:30;;;;;;;15.75;8.43;;;;;;;14.40;100.00;100311.38;5190928;28;20064;-78
2021/07/04 04:12:01;;;;;;;20.25;9.30;;;;;;;14.38;100.00;100313.22;5192946;28;20408;-78
2021/07/04 04:14:32;;;;;;;14.95;9.23;;;;;;;14.46;100.00;100317.13;5190038;28;20045;-78
2021/07/04 04:17:02;;;;;;;19.23;9.63;;;;;;;14.69;100.00;100315.84;5193135;28;20415;-78
2021/07/04 04:19:33;;;;;;;22.27;9.18;;;;;;;14.97;100.00;100327.34;5191880;28;20041;-78
2021/07/04 04:22:03;;;;;;;17.38;8.85;;;;;;;15.19;100.00;100331.28;5188000;28;20033;-78
2021/07/04 04:24:34;;;;;;;16.10;8.10;;;;;;;15.20;100.00;100317.16;5190071;28;20029;-78
2021/07/04 04:27:05;;;;;;;12.18;7.68;;;;;;;15.45;100.00;100327.16;5192405;28;20025;-78
2021/07/04 04:29:35;;;;;;;17.40;8.20;;;;;;;15.50;100.00;100325.94;5189920;28;20032;-78
2021/07/04 04:32:07;;;;;;;11.77;7.82;;;;;;;15.75;100.00;100326.19;5187582;28;20026;-78
2021/07/04 04:34:40;;;;;;;18.77;8.98;;;;;;;16.24;100.00;100319.56;5194809;28;20036;-78
2021/07/04 04:37:10;;;;;;;15.68;7.93;;;;;;;16.76;100.00;100311.84;5195434;28;20096;-78
2021/07/04 04:39:42;;;;;;;13.30;7.35;;;;;;;16.94;100.00;100311.50;5195912;28;20108;-79
2021/07/04 04:42:12;;;;;;;16.35;8.50;;;;;;;17.22;100.00;100317.50;5196197;28;20040;-78
2021/07/04 04:44:42;;;;;;;14.52;7.55;;;;;;;18.61;95.36;100308.59;5197683;28;20558;-78
2021/07/04 04:47:13;;;;;;;17.70;6.93;;;;;;;19.49;91.72;100308.06;5194658;28;20053;-78
2021/07/04 04:49:43;;;;;;;12.32;6.78;;;;;;;21.17;83.75;100305.91;5192216;28;20032;-78
2021/07/04 04:52:16;;;;;;;12.27;6.80;;;;;;;21.67;84.18;100301.66;5196620;28;20033;-78
2021/07/04 04:54:46;;;;;;;13.90;6.38;;;;;;;22.04;80.76;100301.03;5191194;28;20124;-79
2021/07/04 04:57:17;;;;;;;16.55;6.60;;;;;;;22.57;78.61;100299.84;5194704;28;20064;-79
2021/07/04 04:59:47;;;;;;;8.50;5.90;;;;;;;23.27;75.63;100301.34;5199668;28;20025;-79
2021/07/04 05:02:17;;;;;;;12.63;6.82;;;;;;;23.32;75.42;100293.75;5193616;28;20029;-79
2021/07/04 05:04:48;;;;;;;8.43;5.97;;;;;;;24.14;73.82;100285.00;5194611;28;20021;-79
2021/07/04 05:07:18;;;;;;;11.98;6.03;;;;;;;23.00;75.83;100295.00;5196208;28;20029;-78
2021/07/04 05:09:49;;;;;;;11.70;6.45;;;;;;;21.63;82.75;100298.44;5191472;28;20038;-78
2021/07/04 05:12:19;;;;;;;9.65;6.15;;;;;;;21.50;84.50;100288.91;5195512;28;20032;-78
2021/07/04 05:14:50;;;;;;;11.93;6.83;;;;;;;22.25;81.97;100283.16;5197035;28;20049;-78
2021/07/04 05:17:20;;;;;;;10.70;6.72;;;;;;;23.17;80.99;100289.81;5194037;28;20268;-78
2021/07/04 05:19:51;;;;;;;15.05;6.80;;;;;;;23.33;77.99;100290.09;5196619;28;20064;-79
2021/07/04 05:22:22;;;;;;;13.85;6.72;;;;;;;23.19;80.43;100285.19;5190707;28;20053;-78
2021/07/04 05:24:52;;;;;;;12.55;6.38;;;;;;;23.00;79.27;100290.50;5195573;28;20080;-78
2021/07/04 05:27:22;;;;;;;10.57;6.27;;;;;;;24.29;75.92;100293.38;5193056;28;20176;-78
2021/07/04 05:29:52;;;;;;;12.63;6.00;;;;;;;26.76;69.39;100282.81;5196537;28;20611;-79
2021/07/04 05:32:23;;;;;;;8.93;5.33;;;;;;;26.63;68.86;100286.13;5189103;28;20690;-78
2021/07/04 05:34:53;;;;;;;7.72;4.38;;;;;;;27.58;67.89;100283.59;5196815;28;20356;-78
2021/07/04 05:37:24;;;;;;;12.25;5.15;;;;;;;27.50;66.61;100280.94;5192287;28;20429;-79
2021/07/04 05:39:55;;;;;;;7.43;4.35;;;;;;;27.94;64.19;100284.06;5196116;28;20426;-79
2021/07/04 05:42:25;;;;;;;7.47;4.50;;;;;;;28.23;63.19;100279.78;5194473;28;20496;-79
2021/07/04 05:44:55;;;;;;;6.50;4.57;;;;;;;26.72;65.46;100287.84;5195217;28;20083;-78
2021/07/04 05:47:28;;;;;;;7.95;4.72;;;;;;;25.62;69.93;100285.22;5193134;28;20432;-78
2021/07/04 05:49:58;;;;;;;9.27;5.57;;;;;;;24.77;73.18;100281.47;5193903;28;20104;-79
2021/07/04 05:52:30;;;;;;;9.88;5.55;;;;;;;22.93;79.68;100296.53;5189299;28;20130;-78
2021/07/04 05:55:00;;;;;;;10.70;5.60;;;;;;;22.71;81.27;100286.13;5190855;28;20402;-78
2021/07/04 05:57:30;;;;;;;8.77;5.80;;;;;;;22.41;81.19;100280.03;5192113;28;20034;-78
2021/07/04 06:00:01;;;;;;;8.98;6.45;;;;;;;21.98;82.77;100272.28;5191398;28;20312;-78
2021/07/04 06:02:31;;;;;;;7.72;5.88;;;;;;;21.89;85.48;100282.88;5188872;28;20029;-78
2021/07/04 06:05:01;;;;;;;8.07;6.30;;;;;;;21.16;88.24;100284.75;5189950;28;20502;-78
2021/07/04 06:07:32;;;;;;;7.10;5.88;;;;;;;21.19;89.08;100284.47;5192550;28;20268;-78
2021/07/04 06:10:03;;;;;;;8.30;6.75;;;;;;;20.98;91.05;100280.97;5190732;28;20045;-78
2021/07/04 06:12:33;;;;;;;10.93;6.13;;;;;;;21.63;90.13;100274.50;5191459;28;20029;-78
2021/07/04 06:15:06;;;;;;;10.13;6.03;;;;;;;22.34;85.01;100278.84;5192066;28;20025;-78
2021/07/04 06:17:36;;;;;;;9.35;6.25;;;;;;;22.55;84.12;100287.63;5191950;28;20272;-78
2021/07/04 06:20:10;;;;;;;8.98;6.38;;;;;;;22.43;84.42;100278.06;5189696;28;20121;-78
2021/07/04 06:22:40;;;;;;;11.50;6.15;;;;;;;23.39;80.16;100278.84;5190571;28;20041;-78
2021/07/04 06:25:12;;;;;;;9.68;6.25;;;;;;;23.38;79.38;100271.00;5189155;28;20486;-78
2021/07/04 06:27:43;;;;;;;8.68;5.95;;;;;;;24.26;77.20;100274.97;5192264;28;20039;-78
2021/07/04 06:30:14;;;;;;;9.32;6.07;;;;;;;23.95;75.44;100279.75;5189752;28;20037;-78
2021/07/04 06:32:44;;;;;;;9.85;6.00;;;;;;;24.46;76.90;100276.53;5190993;28;20018;-78
2021/07/04 06:35:17;;;;;;;9.75;5.82;;;;;;;24.01;75.05;100276.47;5191949;28;20060;-79
2021/07/04 06:37:48;;;;;;;11.73;5.97;;;;;;;23.22;78.99;100279.56;5194039;28;20025;-78
2021/07/04 06:40:18;;;;;;;9.05;5.97;;;;;;;23.91;77.88;100274.84;5190299;28;20022;-78
2021/07/04 06:42:48;;;;;;;7.95;6.05;;;;;;;23.96;77.21;100272.56;5192295;28;20071;-78
2021/07/04 06:45:19;;;;;;;12.73;5.63;;;;;;;24.55;74.89;100260.47;5188940;28;20440;-78
2021/07/04 06:47:50;;;;;;;9.20;6.13;;;;;;;24.55;75.61;100265.81;5194452;28;20040;-78
2021/07/04 06:50:20;;;;;;;11.02;5.95;;;;;;;24.56;76.07;100262.16;5190874;28;20142;-78
2021/07/04 06:52:50;;;;;;;8.23;5.90;;;;;;;24.65;74.63;100269.28;5189846;28;20029;-78
2021/07/04 06:55:21;;;;;;;7.03;5.15;;;;;;;24.16;80.37;100274.16;5189872;28;20117;-78
2021/07/04 06:57:51;;;;;;;6.27;5.20;;;;;;;25.71;72.01;100260.19;5195361;28;20043;-79
2021/07/04 07:00:22;;;;;;;8.35;5.25;;;;;;;25.55;74.17;100268.13;5188821;28;20268;-78
2021/07/04 07:02:52;;;;;;;6.53;5.05;;;;;;;25.42;73.56;100265.84;5188659;28;20105;-78
2021/07/04 07:05:22;;;;;;;9.65;4.97;;;;;;;25.16;76.57;100272.94;5194681;28;20327;-78
2021/07/04 07:07:52;;;;;;;8.13;4.83;;;;;;;24.90;77.15;100269.38;5192449;28;20033;-78
2021/07/04 07:10:23;;;;;;;7.37;5.33;;;;;;;25.61;73.71;100264.81;5186398;28;20864;-78
2021/07/04 07:12:53;;;;;;;6.13;5.07;;;;;;;26.14;73.72;100254.78;5192906;28;20275;-78
2021/07/04 07:15:24;;;;;;;7.25;5.05;;;;;;;26.05;73.91;100258.41;5186020;28;20307;-79
2021/07/04 07:17:54;;;;;;;6.85;5.00;;;;;;;26.39;72.42;100256.53;5186058;28;20121;-78
2021/07/04 07:20:25;;;;;;;8.82;4.18;;;;;;;26.63;72.52;100251.28;5187845;28;20411;-78
2021/07/04 07:22:55;;;;;;;5.85;4.07;;;;;;;26.93;68.26;100249.66;5189003;28;20025;-80
2021/07/04 07:25:25;;;;;;;7.50;4.70;;;;;;;26.41;71.06;100249.19;5194038;28;20029;-79
2021/07/04 07:27:56;;;;;;;7.23;4.40;;;;;;;26.61;72.73;100240.72;5196131;28;20295;-79
2021/07/04 07:30:26;;;;;;;5.90;3.70;;;;;;;27.27;72.97;100253.06;5192506;28;20320;-80
2021/07/04 07:32:57;;;;;;;6.45;4.30;;;;;;;27.15;68.10;100248.19;5194112;28;20052;-80
2021/07/04 07:35:30;;;;;;;8.55;3.72;;;;;;;28.21;68.90;100243.31;5193181;28;20033;-79
2021/07/04 07:38:03;;;;;;;5.07;3.58;;;;;;;27.11;70.72;100242.31;5195051;28;20025;-79
2021/07/04 07:40:37;;;;;;;5.75;3.70;;;;;;;26.66;69.44;100240.25;5194648;28;20030;-79
2021/07/04 07:43:07;;;;;;;5.82;3.30;;;;;;;25.80;73.73;100245.88;5196063;28;20029;-79
2021/07/04 07:45:40;;;;;;;5.97;3.60;;;;;;;25.87;73.91;100237.03;5194739;28;20022;-79
2021/07/04 07:48:11;;;;;;;6.15;3.78;;;;;;;26.25;74.75;100227.66;5187621;28;20658;-79
2021/07/04 07:50:42;;;;;;;5.97;3.92;;;;;;;25.49;77.55;100231.28;5192369;28;20076;-79
2021/07/04 07:53:12;;;;;;;6.15;3.90;;;;;;;26.07;72.88;100232.28;5186700;28;20037;-79
2021/07/04 07:55:43;;;;;;;9.88;3.67;;;;;;;27.42;70.11;100224.53;5186506;28;20060;-79
2021/07/04 07:58:13;;;;;;;4.90;3.20;;;;;;;28.26;68.10;100225.63;5200651;28;20042;-80
2021/07/04 08:00:44;;;;;;;4.93;3.83;;;;;;;27.79;67.64;100222.13;5197740;28;20029;-80
2021/07/04 08:03:14;;;;;;;5.45;3.67;;;;;;;30.01;61.96;100212.63;5194376;28;20307;-79
2021/07/04 08:05:45;;;;;;;5.03;3.30;;;;;;;30.42;61.29;100215.69;5193377;28;20026;-80
2021/07/04 08:08:15;;;;;;;4.13;3.30;;;;;;;30.15;60.57;100214.50;5199856;28;20025;-79
2021/07/04 08:10:45;;;;;;;4.47;2.92;;;;;;;28.72;63.36;100213.97;5194894;28;20040;-80
2021/07/04 08:13:16;;;;;;;4.78;2.80;;;;;;;28.31;65.79;100217.91;5195343;28;20083;-79
2021/07/04 08:15:46;;;;;;;4.40;2.88;;;;;;;28.38;64.28;100208.16;5196650;28;20077;-79
2021/07/04 08:18:17;;;;;;;5.63;3.40;;;;;;;27.52;68.01;100214.44;5197597;28;20029;-79
2021/07/04 08:20:47;;;;;;;4.50;3.15;;;;;;;27.09;67.66;100205.91;5199668;28;20036;-79
2021/07/04 08:23:18;;;;;;;5.00;3.40;;;;;;;27.19;67.11;100202.06;5200632;28;20574;-79
2021/07/04 08:25:49;;;;;;;5.18;3.17;;;;;;;26.76;71.20;100199.66;5202377;28;20116;-79
2021/07/04 08:28:19;;;;;;;5.18;3.58;;;;;;;26.88;67.63;100202.84;5193980;28;20057;-79
2021/07/04 08:30:49;;;;;;;5.85;3.38;;;;;;;26.38;68.84;100199.41;5194692;28;20115;-79
2021/07/04 08:33:20;;;;;;;4.88;3.63;;;;;;;26.21;70.92;100199.53;5188770;28;20438;-79
2021/07/04 08:35:50;;;;;;;4.63;3.28;;;;;;;25.74;71.26;100195.59;5197884;28;20502;-78
2021/07/04 08:38:20;;;;;;;5.68;3.58;;;;;;;26.82;69.84;100188.28;5197457;28;20041;-79
2021/07/04 08:43:34;;;;;;;3.95;3.40;;;;;;;28.49;62.61;100180.81;5195875;28;20308;-77
2021/07/04 08:46:05;;;;;;;6.18;3.33;;;;;;;30.17;60.80;100176.56;5204840;28;20045;-78
2021/07/04 08:48:38;;;;;;;4.95;3.55;;;;;;;28.41;56.62;100188.09;5201476;28;20049;-77
2021/07/04 08:51:10;;;;;;;4.68;3.22;;;;;;;28.70;61.53;100185.56;5194998;28;20113;-77
2021/07/04 08:53:40;;;;;;;5.15;2.97;;;;;;;28.31;57.62;100182.13;5202059;28;20039;-79
2021/07/04 08:56:11;;;;;;;6.32;3.40;;;;;;;27.92;63.02;100178.59;5204671;28;20120;-76
2021/07/04 08:58:41;;;;;;;5.15;3.08;;;;;;;27.75;60.25;100180.50;5203574;28;20052;-76
2021/07/04 09:01:17;;;;;;;4.13;3.10;;;;;;;27.28;61.32;100179.56;5203097;28;20037;-77
2021/07/04 09:03:51;;;;;;;;;;;;;;;27.05;61.45;100183.94;5204080;28;20757;-79
2021/07/04 09:06:36;;;;;;;4.43;3.60;;;;;;;27.11;58.23;100172.53;5205946;28;19945;-79
2021/07/04 09:09:21;;;;;;;7.88;3.60;;;;;;;26.87;61.09;100175.22;5197161;28;20037;-77
2021/07/04 09:11:58;;;;;;;4.70;3.17;;;;;;;27.33;61.85;100171.88;5198370;28;20038;-75
2021/07/04 09:14:33;;;;;;;4.90;3.30;;;;;;;27.01;62.12;100162.97;5198815;28;20277;-78
2021/07/04 09:17:06;;;;;;;5.30;3.07;;;;;;;27.07;65.27;100165.81;5202696;28;20052;-75
2021/07/04 09:19:57;;;;;;;7.43;3.13;;;;;;;27.39;62.54;100157.75;5200313;28;20033;-77
2021/07/04 09:22:37;;;;;;;5.25;3.33;;;;;;;27.84;61.49;100157.13;5204544;28;20041;-77
2021/07/04 09:25:19;;;;;;;4.80;3.10;;;;;;;28.06;61.75;100159.88;5205360;28;20145;-77
2021/07/04 09:28:05;;;;;;;5.50;3.45;;;;;;;27.58;57.83;100153.84;5203899;28;20093;-79
2021/07/04 09:30:46;;;;;;;4.97;3.03;;;;;;;27.64;61.85;100159.34;5199393;28;20045;-76
2021/07/04 09:33:31;;;;;;;5.60;3.15;;;;;;;27.90;57.70;100154.59;5201795;28;20025;-78
2021/07/04 09:36:01;;;;;;;3.75;3.00;;;;;;;28.14;58.79;100151.75;5190963;28;20036;-78
2021/07/04 09:38:34;;;;;;;4.40;3.00;;;;;;;27.85;58.06;100151.59;5193954;28;20479;-79
2021/07/04 09:41:07;;;;;;;6.88;3.70;;;;;;;27.40;56.41;100148.69;5192937;28;20033;-78
2021/07/04 09:43:39;;;;;;;4.53;3.42;;;;;;;27.10;56.25;100152.06;5191655;28;20026;-78
2021/07/04 09:46:12;;;;;;;4.90;3.47;;;;;;;27.15;59.25;100152.44;5191503;28;20103;-78
2021/07/04 09:48:52;;;;;;;5.15;3.33;;;;;;;27.24;58.52;100155.94;5188123;28;20066;-79
2021/07/04 09:51:24;;;;;;;8.73;3.53;;;;;;;26.98;60.59;100147.19;5191332;28;20030;-78
2021/07/04 09:53:57;;;;;;;4.35;3.28;;;;;;;27.22;60.27;100153.41;5192206;28;20038;-76
2021/07/04 09:56:29;;;;;;;5.38;3.10;;;;;;;27.68;56.93;100144.56;5195228;28;20485;-76
2021/07/04 09:59:05;;;;;;;4.68;3.63;;;;;;;27.49;61.15;100144.97;5193219;28;20108;-75
2021/07/04 10:01:43;;;;;;;5.65;3.20;;;;;;;27.66;59.99;100143.91;5186314;28;20033;-76
2021/07/04 10:04:26;;;;;;;4.63;3.17;;;;;;;27.91;62.28;100134.75;5193231;28;20041;-77
2021/07/04 10:06:58;;;;;;;3.97;3.00;;;;;;;27.37;62.80;100138.28;5193354;28;20029;-78
2021/07/04 10:09:29;;;;;;;6.45;3.20;;;;;;;28.40;58.35;100130.81;5200869;28;20025;-77
2021/07/04 10:12:01;;;;;;;5.15;3.15;;;;;;;27.82;59.38;100146.53;5195218;28;20037;-78
2021/07/04 10:14:31;;;;;;;4.97;3.30;;;;;;;28.20;57.94;100128.72;5194654;28;20347;-77
2021/07/04 10:17:02;;;;;;;5.77;3.30;;;;;;;28.72;61.33;100140.47;5182661;28;20531;-78
2021/07/04 10:19:34;;;;;;;3.58;2.70;;;;;;;27.93;58.35;100132.72;5186269;28;20284;-78
2021/07/04 10:22:05;;;;;;;3.85;2.95;;;;;;;27.73;58.24;100133.31;5190859;28;20036;-78
2021/07/04 10:24:38;;;;;;;6.45;3.10;;;;;;;27.84;57.19;100117.69;5197663;28;20487;-77
2021/07/04 10:27:12;;;;;;;5.65;3.15;;;;;;;28.11;57.21;100127.94;5195220;28;20025;-77
2021/07/04 10:29:43;;;;;;;4.57;2.97;;;;;;;28.16;57.19;100117.47;5194185;28;20113;-76
2021/07/04 10:32:13;;;;;;;3.72;3.00;;;;;;;27.92;60.23;100114.94;5190665;28;20502;-78
2021/07/04 10:34:45;;;;;;;5.55;3.05;;;;;;;27.56;60.26;100126.28;5191195;28;20072;-77
2021/07/04 10:37:29;;;;;;;4.10;3.20;;;;;;;27.29;59.97;100110.63;5191266;28;20029;-77
2021/07/04 10:40:14;;;;;;;5.13;3.40;;;;;;;26.60;59.65;100106.81;5185956;28;20031;-78
2021/07/04 10:42:45;;;;;;;4.95;3.10;;;;;;;26.91;58.75;100105.97;5193057;28;20037;-78
2021/07/04 10:45:32;;;;;;;5.68;2.90;;;;;;;27.30;61.95;100096.19;5191473;28;20049;-78
2021/07/04 10:48:18;;;;;;;4.15;3.20;;;;;;;27.35;62.45;100094.66;5185092;28;20029;-78
2021/07/04 10:51:05;;;;;;;4.57;3.60;;;;;;;26.96;59.83;100093.69;5183785;28;20249;-78
2021/07/04 10:53:53;;;;;;;4.30;3.20;;;;;;;27.56;59.87;100086.00;5185777;28;20511;-78
2021/07/04 10:56:32;;;;;;;4.03;2.88;;;;;;;27.88;57.82;100076.00;5185151;28;20025;-78
2021/07/04 10:59:05;;;;;;;4.70;3.20;;;;;;;27.94;56.83;100077.16;5188934;28;20030;-79
2021/07/04 11:01:59;;;;;;;4.80;3.20;;;;;;;27.40;56.88;100075.31;5185353;28;20029;-78
2021/07/04 11:04:32;;;;;;;6.65;3.25;;;;;;;27.35;56.73;100077.69;5181868;28;20057;-78
2021/07/04 11:07:06;;;;;;;6.10;3.85;;;;;;;27.23;58.65;100063.81;5192792;28;20025;-78
2021/07/04 11:09:51;;;;;;;4.05;3.00;;;;;;;27.24;60.20;100060.13;5191758;28;20049;-78
2021/07/04 11:12:34;;;;;;;5.55;3.25;;;;;;;27.17;55.76;100053.78;5193946;28;20060;-78
2021/07/04 11:15:10;;;;;;;6.10;3.40;;;;;;;27.24;59.11;100057.44;5193453;28;20809;-77
2021/07/04 11:17:59;;;;;;;6.32;3.00;;;;;;;27.36;57.25;100049.84;5193830;28;20022;-78
2021/07/04 11:20:39;;;;;;;4.53;3.10;;;;;;;27.68;55.87;100047.88;5190984;28;20069;-78
2021/07/04 11:23:27;;;;;;;4.07;3.40;;;;;;;27.60;55.73;100041.69;5193203;28;20435;-79
2021/07/04 11:26:17;;;;;;;5.05;3.20;;;;;;;27.77;55.66;100043.31;5189027;28;20052;-79
2021/07/04 11:28:50;;;;;;;5.47;2.85;;;;;;;27.69;54.54;100038.78;5190476;28;20038;-79
2021/07/04 11:31:20;;;;;;;4.30;3.20;;;;;;;27.74;56.60;100036.44;5189145;28;20092;-79
2021/07/04 11:33:52;;;;;;;6.50;3.13;;;;;;;27.41;55.96;100034.91;5191621;28;20033;-77
2021/07/04 11:36:25;;;;;;;5.70;3.33;;;;;;;27.51;55.77;100035.53;5189654;28;20465;-79
2021/07/04 11:39:05;;;;;;;6.05;3.50;;;;;;;27.78;55.42;100039.63;5186304;28;20029;-78
2021/07/04 11:41:40;;;;;;;5.22;3.08;;;;;;;27.90;59.36;100030.13;5195008;28;20050;-78
2021/07/04 11:44:17;;;;;;;5.35;3.22;;;;;;;27.57;59.58;100029.44;5194987;28;20450;-79